sensor_id;sensor_type;location;lat;lon;timestamp;P1;durP1;ratioP1;P2;durP2;ratioP2
4055;SDS011;2043;52.184;8.690;2023-05-10T00:00:20;15.10;;;10.63;;
4055;SDS011;2043;52.184;8.690;2023-05-10T00:02:48;15.30;;;10.87;;
4055;SDS011;2043;52.184;8.690;2023-05-10T00:05:15;14.90;;;10.83;;
4055;SDS011;2043;52.184;8.690;2023-05-10T00:07:42;15.10;;;10.80;;
4055;SDS011;2043;52.184;8.690;2023-05-10T00:10:12;17.50;;;12.90;;
4055;SDS011;2043;52.184;8.690;2023-05-10T00:12:39;18.27;;;13.10;;
4055;SDS011;2043;52.184;8.690;2023-05-10T00:15:06;17.10;;;11.83;;
4055;SDS011;2043;52.184;8.690;2023-05-10T00:17:34;15.70;;;11.80;;
4055;SDS011;2043;52.184;8.690;2023-05-10T00:20:00;20.37;;;11.83;;
4055;SDS011;2043;52.184;8.690;2023-05-10T00:22:28;15.20;;;12.43;;
4055;SDS011;2043;52.184;8.690;2023-05-10T00:24:54;16.67;;;11.90;;
4055;SDS011;2043;52.184;8.690;2023-05-10T00:27:21;16.97;;;12.50;;
4055;SDS011;2043;52.184;8.690;2023-05-10T00:29:48;20.03;;;13.30;;
4055;SDS011;2043;52.184;8.690;2023-05-10T00:32:15;18.30;;;13.17;;
4055;SDS011;2043;52.184;8.690;2023-05-10T00:34:42;16.07;;;11.90;;
4055;SDS011;2043;52.184;8.690;2023-05-10T00:37:09;18.90;;;13.13;;
4055;SDS011;2043;52.184;8.690;2023-05-10T00:39:36;19.03;;;13.03;;
4055;SDS011;2043;52.184;8.690;2023-05-10T00:42:02;19.10;;;13.73;;
4055;SDS011;2043;52.184;8.690;2023-05-10T00:44:30;22.73;;;14.07;;
4055;SDS011;2043;52.184;8.690;2023-05-10T00:46:57;24.43;;;16.03;;
4055;SDS011;2043;52.184;8.690;2023-05-10T00:49:25;22.47;;;14.97;;
4055;SDS011;2043;52.184;8.690;2023-05-10T00:51:52;19.63;;;14.30;;
4055;SDS011;2043;52.184;8.690;2023-05-10T00:54:19;20.30;;;13.73;;
4055;SDS011;2043;52.184;8.690;2023-05-10T00:56:46;19.50;;;14.53;;
4055;SDS011;2043;52.184;8.690;2023-05-10T00:59:15;19.97;;;13.50;;
4055;SDS011;2043;52.184;8.690;2023-05-10T01:01:44;19.67;;;13.77;;
4055;SDS011;2043;52.184;8.690;2023-05-10T01:04:12;20.50;;;14.47;;
4055;SDS011;2043;52.184;8.690;2023-05-10T01:06:39;22.77;;;15.63;;
4055;SDS011;2043;52.184;8.690;2023-05-10T01:09:07;24.17;;;14.27;;
4055;SDS011;2043;52.184;8.690;2023-05-10T01:11:34;21.83;;;14.30;;
4055;SDS011;2043;52.184;8.690;2023-05-10T01:14:02;19.20;;;13.73;;
4055;SDS011;2043;52.184;8.690;2023-05-10T01:16:29;21.33;;;15.10;;
4055;SDS011;2043;52.184;8.690;2023-05-10T01:19:02;22.30;;;14.50;;
4055;SDS011;2043;52.184;8.690;2023-05-10T01:21:52;20.47;;;14.13;;
4055;SDS011;2043;52.184;8.690;2023-05-10T01:32:55;22.33;;;14.60;;
4055;SDS011;2043;52.184;8.690;2023-05-10T01:38:15;21.80;;;15.30;;
4055;SDS011;2043;52.184;8.690;2023-05-10T01:43:45;20.30;;;14.40;;
4055;SDS011;2043;52.184;8.690;2023-05-10T01:46:33;20.90;;;14.00;;
4055;SDS011;2043;52.184;8.690;2023-05-10T01:49:09;21.27;;;14.70;;
4055;SDS011;2043;52.184;8.690;2023-05-10T01:51:47;21.30;;;14.30;;
4055;SDS011;2043;52.184;8.690;2023-05-10T01:54:19;23.20;;;14.80;;
4055;SDS011;2043;52.184;8.690;2023-05-10T01:56:49;20.90;;;13.90;;
4055;SDS011;2043;52.184;8.690;2023-05-10T01:59:21;19.50;;;12.93;;
4055;SDS011;2043;52.184;8.690;2023-05-10T02:01:54;16.93;;;12.57;;
4055;SDS011;2043;52.184;8.690;2023-05-10T02:04:24;17.73;;;13.07;;
4055;SDS011;2043;52.184;8.690;2023-05-10T02:06:52;20.37;;;14.23;;
4055;SDS011;2043;52.184;8.690;2023-05-10T02:09:21;20.47;;;14.13;;
4055;SDS011;2043;52.184;8.690;2023-05-10T02:11:49;20.70;;;14.07;;
4055;SDS011;2043;52.184;8.690;2023-05-10T02:14:16;18.47;;;13.30;;
4055;SDS011;2043;52.184;8.690;2023-05-10T02:16:45;17.97;;;12.33;;
4055;SDS011;2043;52.184;8.690;2023-05-10T02:19:13;15.30;;;11.00;;
4055;SDS011;2043;52.184;8.690;2023-05-10T02:21:41;14.80;;;10.07;;
4055;SDS011;2043;52.184;8.690;2023-05-10T02:24:10;17.20;;;12.63;;
4055;SDS011;2043;52.184;8.690;2023-05-10T02:26:38;23.30;;;13.57;;
4055;SDS011;2043;52.184;8.690;2023-05-10T02:29:05;16.03;;;11.40;;
4055;SDS011;2043;52.184;8.690;2023-05-10T02:31:33;18.00;;;12.33;;
4055;SDS011;2043;52.184;8.690;2023-05-10T02:34:01;15.53;;;11.17;;
4055;SDS011;2043;52.184;8.690;2023-05-10T02:36:30;22.97;;;12.60;;
4055;SDS011;2043;52.184;8.690;2023-05-10T02:38:58;21.10;;;13.10;;
4055;SDS011;2043;52.184;8.690;2023-05-10T02:41:28;17.57;;;12.17;;
4055;SDS011;2043;52.184;8.690;2023-05-10T02:43:57;12.87;;;8.60;;
4055;SDS011;2043;52.184;8.690;2023-05-10T02:46:27;14.50;;;7.37;;
4055;SDS011;2043;52.184;8.690;2023-05-10T02:48:54;10.23;;;7.20;;
4055;SDS011;2043;52.184;8.690;2023-05-10T02:51:21;14.10;;;7.13;;
4055;SDS011;2043;52.184;8.690;2023-05-10T02:53:54;16.13;;;6.67;;
4055;SDS011;2043;52.184;8.690;2023-05-10T02:56:24;9.87;;;6.60;;
4055;SDS011;2043;52.184;8.690;2023-05-10T02:58:55;10.53;;;6.70;;
4055;SDS011;2043;52.184;8.690;2023-05-10T03:01:21;12.10;;;6.63;;
4055;SDS011;2043;52.184;8.690;2023-05-10T03:03:48;10.20;;;6.90;;
4055;SDS011;2043;52.184;8.690;2023-05-10T03:06:15;13.40;;;7.40;;
4055;SDS011;2043;52.184;8.690;2023-05-10T03:08:43;11.97;;;7.67;;
4055;SDS011;2043;52.184;8.690;2023-05-10T03:11:22;11.60;;;7.90;;
4055;SDS011;2043;52.184;8.690;2023-05-10T03:16:34;11.60;;;7.80;;
4055;SDS011;2043;52.184;8.690;2023-05-10T03:19:16;10.33;;;6.73;;
4055;SDS011;2043;52.184;8.690;2023-05-10T03:21:53;20.50;;;6.43;;
4055;SDS011;2043;52.184;8.690;2023-05-10T03:24:25;14.13;;;6.33;;
4055;SDS011;2043;52.184;8.690;2023-05-10T03:26:55;10.37;;;6.47;;
4055;SDS011;2043;52.184;8.690;2023-05-10T03:29:25;8.83;;;6.30;;
4055;SDS011;2043;52.184;8.690;2023-05-10T03:31:53;8.70;;;6.57;;
4055;SDS011;2043;52.184;8.690;2023-05-10T03:34:24;11.33;;;6.93;;
4055;SDS011;2043;52.184;8.690;2023-05-10T03:36:51;10.17;;;6.93;;
4055;SDS011;2043;52.184;8.690;2023-05-10T03:39:18;9.57;;;6.40;;
4055;SDS011;2043;52.184;8.690;2023-05-10T03:41:46;8.93;;;6.87;;
4055;SDS011;2043;52.184;8.690;2023-05-10T03:44:13;10.20;;;7.00;;
4055;SDS011;2043;52.184;8.690;2023-05-10T03:46:39;11.30;;;7.17;;
4055;SDS011;2043;52.184;8.690;2023-05-10T03:49:06;13.20;;;8.00;;
4055;SDS011;2043;52.184;8.690;2023-05-10T03:51:33;12.20;;;7.40;;
4055;SDS011;2043;52.184;8.690;2023-05-10T03:54:00;11.50;;;7.87;;
4055;SDS011;2043;52.184;8.690;2023-05-10T03:56:27;12.53;;;7.50;;
4055;SDS011;2043;52.184;8.690;2023-05-10T03:58:53;13.37;;;8.30;;
4055;SDS011;2043;52.184;8.690;2023-05-10T04:01:20;10.00;;;7.03;;
4055;SDS011;2043;52.184;8.690;2023-05-10T04:03:47;12.10;;;7.37;;
4055;SDS011;2043;52.184;8.690;2023-05-10T04:06:15;10.07;;;6.80;;
4055;SDS011;2043;52.184;8.690;2023-05-10T04:08:42;9.43;;;6.90;;
4055;SDS011;2043;52.184;8.690;2023-05-10T04:11:09;10.43;;;7.60;;
4055;SDS011;2043;52.184;8.690;2023-05-10T04:13:38;9.90;;;6.90;;
4055;SDS011;2043;52.184;8.690;2023-05-10T04:16:05;11.27;;;7.50;;
4055;SDS011;2043;52.184;8.690;2023-05-10T04:18:32;8.80;;;6.17;;
4055;SDS011;2043;52.184;8.690;2023-05-10T04:20:59;12.80;;;6.90;;
4055;SDS011;2043;52.184;8.690;2023-05-10T04:23:26;9.97;;;6.90;;
4055;SDS011;2043;52.184;8.690;2023-05-10T04:25:58;8.70;;;6.40;;
4055;SDS011;2043;52.184;8.690;2023-05-10T04:28:26;10.23;;;7.23;;
4055;SDS011;2043;52.184;8.690;2023-05-10T04:30:53;12.87;;;7.30;;
4055;SDS011;2043;52.184;8.690;2023-05-10T04:33:26;10.37;;;7.40;;
4055;SDS011;2043;52.184;8.690;2023-05-10T04:35:53;9.60;;;6.90;;
4055;SDS011;2043;52.184;8.690;2023-05-10T04:38:19;10.53;;;6.77;;
4055;SDS011;2043;52.184;8.690;2023-05-10T04:40:46;9.87;;;6.60;;
4055;SDS011;2043;52.184;8.690;2023-05-10T04:43:13;9.97;;;6.60;;
4055;SDS011;2043;52.184;8.690;2023-05-10T04:45:40;9.40;;;6.50;;
4055;SDS011;2043;52.184;8.690;2023-05-10T04:48:07;6.90;;;4.33;;
4055;SDS011;2043;52.184;8.690;2023-05-10T04:50:33;5.83;;;3.53;;
4055;SDS011;2043;52.184;8.690;2023-05-10T04:53:00;4.03;;;2.13;;
4055;SDS011;2043;52.184;8.690;2023-05-10T04:55:27;3.80;;;2.23;;
4055;SDS011;2043;52.184;8.690;2023-05-10T04:57:54;3.90;;;2.30;;
4055;SDS011;2043;52.184;8.690;2023-05-10T05:00:23;6.10;;;1.83;;
4055;SDS011;2043;52.184;8.690;2023-05-10T05:02:49;5.53;;;2.40;;
4055;SDS011;2043;52.184;8.690;2023-05-10T05:05:16;3.43;;;2.00;;
4055;SDS011;2043;52.184;8.690;2023-05-10T05:07:43;4.10;;;1.90;;
4055;SDS011;2043;52.184;8.690;2023-05-10T05:10:10;3.10;;;1.93;;
4055;SDS011;2043;52.184;8.690;2023-05-10T05:12:36;5.27;;;2.23;;
4055;SDS011;2043;52.184;8.690;2023-05-10T05:15:03;4.17;;;1.87;;
4055;SDS011;2043;52.184;8.690;2023-05-10T05:17:33;4.47;;;2.30;;
4055;SDS011;2043;52.184;8.690;2023-05-10T05:20:00;14.23;;;3.13;;
4055;SDS011;2043;52.184;8.690;2023-05-10T05:22:27;4.50;;;2.80;;
4055;SDS011;2043;52.184;8.690;2023-05-10T05:24:55;3.97;;;2.57;;
4055;SDS011;2043;52.184;8.690;2023-05-10T05:27:22;4.20;;;2.83;;
4055;SDS011;2043;52.184;8.690;2023-05-10T05:29:50;5.50;;;2.57;;
4055;SDS011;2043;52.184;8.690;2023-05-10T05:32:19;5.37;;;3.40;;
4055;SDS011;2043;52.184;8.690;2023-05-10T05:34:46;4.60;;;2.70;;
4055;SDS011;2043;52.184;8.690;2023-05-10T05:37:16;5.07;;;3.33;;
4055;SDS011;2043;52.184;8.690;2023-05-10T05:39:44;7.20;;;3.53;;
4055;SDS011;2043;52.184;8.690;2023-05-10T05:42:11;6.03;;;3.90;;
4055;SDS011;2043;52.184;8.690;2023-05-10T05:44:39;7.50;;;5.00;;
4055;SDS011;2043;52.184;8.690;2023-05-10T05:47:06;7.00;;;4.47;;
4055;SDS011;2043;52.184;8.690;2023-05-10T05:49:33;8.70;;;4.50;;
4055;SDS011;2043;52.184;8.690;2023-05-10T05:52:00;7.40;;;5.07;;
4055;SDS011;2043;52.184;8.690;2023-05-10T05:54:27;8.20;;;5.60;;
4055;SDS011;2043;52.184;8.690;2023-05-10T05:56:54;9.67;;;6.37;;
4055;SDS011;2043;52.184;8.690;2023-05-10T05:59:24;9.40;;;6.00;;
4055;SDS011;2043;52.184;8.690;2023-05-10T06:01:51;10.10;;;6.83;;
4055;SDS011;2043;52.184;8.690;2023-05-10T06:04:18;11.93;;;7.10;;
4055;SDS011;2043;52.184;8.690;2023-05-10T06:06:45;9.63;;;6.50;;
4055;SDS011;2043;52.184;8.690;2023-05-10T06:09:12;9.73;;;7.17;;
4055;SDS011;2043;52.184;8.690;2023-05-10T06:11:38;8.93;;;6.00;;
4055;SDS011;2043;52.184;8.690;2023-05-10T06:14:05;8.00;;;6.00;;
4055;SDS011;2043;52.184;8.690;2023-05-10T06:16:34;9.00;;;6.10;;
4055;SDS011;2043;52.184;8.690;2023-05-10T06:19:01;8.53;;;6.03;;
4055;SDS011;2043;52.184;8.690;2023-05-10T06:21:28;9.07;;;5.77;;
4055;SDS011;2043;52.184;8.690;2023-05-10T06:23:56;7.77;;;5.27;;
4055;SDS011;2043;52.184;8.690;2023-05-10T06:26:23;10.53;;;5.37;;
4055;SDS011;2043;52.184;8.690;2023-05-10T06:28:49;6.40;;;4.60;;
4055;SDS011;2043;52.184;8.690;2023-05-10T06:31:16;7.33;;;4.50;;
4055;SDS011;2043;52.184;8.690;2023-05-10T06:33:44;7.97;;;4.80;;
4055;SDS011;2043;52.184;8.690;2023-05-10T06:36:10;10.00;;;5.03;;
4055;SDS011;2043;52.184;8.690;2023-05-10T06:38:37;7.83;;;5.27;;
4055;SDS011;2043;52.184;8.690;2023-05-10T06:41:04;9.60;;;5.20;;
4055;SDS011;2043;52.184;8.690;2023-05-10T06:43:31;8.37;;;5.20;;
4055;SDS011;2043;52.184;8.690;2023-05-10T06:45:58;8.73;;;4.87;;
4055;SDS011;2043;52.184;8.690;2023-05-10T06:48:25;7.30;;;5.00;;
4055;SDS011;2043;52.184;8.690;2023-05-10T06:50:52;18.00;;;5.57;;
4055;SDS011;2043;52.184;8.690;2023-05-10T06:53:19;6.70;;;4.70;;
4055;SDS011;2043;52.184;8.690;2023-05-10T06:55:45;10.07;;;5.60;;
4055;SDS011;2043;52.184;8.690;2023-05-10T06:58:12;10.53;;;6.03;;
4055;SDS011;2043;52.184;8.690;2023-05-10T07:00:39;6.97;;;5.00;;
4055;SDS011;2043;52.184;8.690;2023-05-10T07:03:09;8.57;;;5.43;;
4055;SDS011;2043;52.184;8.690;2023-05-10T07:05:36;6.27;;;4.60;;
4055;SDS011;2043;52.184;8.690;2023-05-10T07:08:04;7.57;;;4.77;;
4055;SDS011;2043;52.184;8.690;2023-05-10T07:10:30;6.80;;;4.57;;
4055;SDS011;2043;52.184;8.690;2023-05-10T07:12:57;6.17;;;4.43;;
4055;SDS011;2043;52.184;8.690;2023-05-10T07:15:24;6.10;;;4.00;;
4055;SDS011;2043;52.184;8.690;2023-05-10T07:17:51;8.60;;;4.60;;
4055;SDS011;2043;52.184;8.690;2023-05-10T07:20:18;7.90;;;4.47;;
4055;SDS011;2043;52.184;8.690;2023-05-10T07:22:47;8.40;;;4.57;;
4055;SDS011;2043;52.184;8.690;2023-05-10T07:25:14;8.17;;;4.37;;
4055;SDS011;2043;52.184;8.690;2023-05-10T07:27:41;7.43;;;4.53;;
4055;SDS011;2043;52.184;8.690;2023-05-10T07:30:08;6.30;;;4.33;;
4055;SDS011;2043;52.184;8.690;2023-05-10T07:32:35;6.60;;;4.00;;
4055;SDS011;2043;52.184;8.690;2023-05-10T07:35:02;6.67;;;3.90;;
4055;SDS011;2043;52.184;8.690;2023-05-10T07:37:29;10.10;;;3.90;;
4055;SDS011;2043;52.184;8.690;2023-05-10T07:39:56;7.50;;;4.40;;
4055;SDS011;2043;52.184;8.690;2023-05-10T07:42:23;9.43;;;4.43;;
4055;SDS011;2043;52.184;8.690;2023-05-10T07:44:49;6.77;;;4.50;;
4055;SDS011;2043;52.184;8.690;2023-05-10T07:47:17;8.23;;;4.07;;
4055;SDS011;2043;52.184;8.690;2023-05-10T07:49:44;9.90;;;4.90;;
4055;SDS011;2043;52.184;8.690;2023-05-10T07:52:10;8.97;;;4.30;;
4055;SDS011;2043;52.184;8.690;2023-05-10T07:54:37;9.70;;;5.10;;
4055;SDS011;2043;52.184;8.690;2023-05-10T07:57:04;7.07;;;4.60;;
4055;SDS011;2043;52.184;8.690;2023-05-10T07:59:31;9.77;;;5.60;;
4055;SDS011;2043;52.184;8.690;2023-05-10T08:01:59;11.13;;;5.03;;
4055;SDS011;2043;52.184;8.690;2023-05-10T08:04:26;10.93;;;5.07;;
4055;SDS011;2043;52.184;8.690;2023-05-10T08:06:53;9.10;;;5.30;;
4055;SDS011;2043;52.184;8.690;2023-05-10T08:09:20;12.53;;;5.63;;
4055;SDS011;2043;52.184;8.690;2023-05-10T08:11:50;13.20;;;5.17;;
4055;SDS011;2043;52.184;8.690;2023-05-10T08:14:17;12.87;;;6.27;;
4055;SDS011;2043;52.184;8.690;2023-05-10T08:16:44;8.20;;;5.80;;
4055;SDS011;2043;52.184;8.690;2023-05-10T08:19:11;11.10;;;5.90;;
4055;SDS011;2043;52.184;8.690;2023-05-10T08:21:37;8.30;;;5.30;;
4055;SDS011;2043;52.184;8.690;2023-05-10T08:24:06;9.20;;;5.70;;
4055;SDS011;2043;52.184;8.690;2023-05-10T08:26:33;8.93;;;5.40;;
4055;SDS011;2043;52.184;8.690;2023-05-10T08:29:00;10.23;;;6.37;;
4055;SDS011;2043;52.184;8.690;2023-05-10T08:31:26;11.70;;;6.10;;
4055;SDS011;2043;52.184;8.690;2023-05-10T08:33:53;13.83;;;6.00;;
4055;SDS011;2043;52.184;8.690;2023-05-10T08:36:20;13.97;;;6.77;;
4055;SDS011;2043;52.184;8.690;2023-05-10T08:38:50;10.80;;;7.10;;
4055;SDS011;2043;52.184;8.690;2023-05-10T08:41:19;11.73;;;8.00;;
4055;SDS011;2043;52.184;8.690;2023-05-10T08:43:47;15.87;;;8.70;;
4055;SDS011;2043;52.184;8.690;2023-05-10T08:46:16;14.53;;;8.63;;
4055;SDS011;2043;52.184;8.690;2023-05-10T08:48:45;15.40;;;9.10;;
4055;SDS011;2043;52.184;8.690;2023-05-10T08:51:13;14.53;;;8.50;;
4055;SDS011;2043;52.184;8.690;2023-05-10T08:53:44;15.50;;;9.13;;
4055;SDS011;2043;52.184;8.690;2023-05-10T08:56:11;16.47;;;9.37;;
4055;SDS011;2043;52.184;8.690;2023-05-10T08:58:38;14.80;;;9.43;;
4055;SDS011;2043;52.184;8.690;2023-05-10T09:01:05;16.20;;;9.47;;
4055;SDS011;2043;52.184;8.690;2023-05-10T09:03:32;18.50;;;9.73;;
4055;SDS011;2043;52.184;8.690;2023-05-10T09:05:59;24.10;;;9.53;;
4055;SDS011;2043;52.184;8.690;2023-05-10T09:08:26;15.20;;;8.63;;
4055;SDS011;2043;52.184;8.690;2023-05-10T09:10:56;18.80;;;9.30;;
4055;SDS011;2043;52.184;8.690;2023-05-10T09:13:24;20.00;;;10.43;;
4055;SDS011;2043;52.184;8.690;2023-05-10T09:15:52;18.40;;;10.73;;
4055;SDS011;2043;52.184;8.690;2023-05-10T09:18:19;19.40;;;10.70;;
4055;SDS011;2043;52.184;8.690;2023-05-10T09:20:47;21.00;;;11.43;;
4055;SDS011;2043;52.184;8.690;2023-05-10T09:23:14;22.37;;;11.43;;
4055;SDS011;2043;52.184;8.690;2023-05-10T09:25:41;21.20;;;11.90;;
4055;SDS011;2043;52.184;8.690;2023-05-10T09:28:08;27.97;;;11.43;;
4055;SDS011;2043;52.184;8.690;2023-05-10T09:30:36;26.87;;;12.00;;
4055;SDS011;2043;52.184;8.690;2023-05-10T09:33:03;20.70;;;11.87;;
4055;SDS011;2043;52.184;8.690;2023-05-10T09:35:31;19.10;;;11.77;;
4055;SDS011;2043;52.184;8.690;2023-05-10T09:38:01;17.40;;;10.93;;
4055;SDS011;2043;52.184;8.690;2023-05-10T09:40:30;18.13;;;10.90;;
4055;SDS011;2043;52.184;8.690;2023-05-10T09:43:01;17.17;;;11.37;;
4055;SDS011;2043;52.184;8.690;2023-05-10T09:45:30;19.47;;;11.17;;
4055;SDS011;2043;52.184;8.690;2023-05-10T09:47:58;16.87;;;11.00;;
4055;SDS011;2043;52.184;8.690;2023-05-10T09:50:26;21.93;;;10.90;;
4055;SDS011;2043;52.184;8.690;2023-05-10T09:55:22;15.50;;;10.27;;
4055;SDS011;2043;52.184;8.690;2023-05-10T09:57:58;17.50;;;9.20;;
4055;SDS011;2043;52.184;8.690;2023-05-10T10:00:26;15.40;;;10.00;;
4055;SDS011;2043;52.184;8.690;2023-05-10T10:02:55;18.03;;;10.53;;
4055;SDS011;2043;52.184;8.690;2023-05-10T10:05:29;16.47;;;9.47;;
4055;SDS011;2043;52.184;8.690;2023-05-10T10:07:59;18.70;;;9.47;;
4055;SDS011;2043;52.184;8.690;2023-05-10T10:10:31;12.40;;;8.77;;
4055;SDS011;2043;52.184;8.690;2023-05-10T10:12:59;20.10;;;9.90;;
4055;SDS011;2043;52.184;8.690;2023-05-10T10:15:26;14.63;;;8.53;;
4055;SDS011;2043;52.184;8.690;2023-05-10T10:17:53;12.43;;;9.00;;
4055;SDS011;2043;52.184;8.690;2023-05-10T10:20:21;15.07;;;9.53;;
4055;SDS011;2043;52.184;8.690;2023-05-10T10:22:48;15.77;;;8.70;;
4055;SDS011;2043;52.184;8.690;2023-05-10T10:25:16;16.10;;;9.33;;
4055;SDS011;2043;52.184;8.690;2023-05-10T10:35:58;14.40;;;8.97;;
4055;SDS011;2043;52.184;8.690;2023-05-10T10:38:35;15.13;;;7.43;;
4055;SDS011;2043;52.184;8.690;2023-05-10T10:41:27;13.60;;;8.80;;
4055;SDS011;2043;52.184;8.690;2023-05-10T10:49:50;13.33;;;8.30;;
4055;SDS011;2043;52.184;8.690;2023-05-10T10:52:25;12.70;;;8.13;;
4055;SDS011;2043;52.184;8.690;2023-05-10T10:55:03;12.77;;;8.83;;
4055;SDS011;2043;52.184;8.690;2023-05-10T11:02:55;12.47;;;8.00;;
4055;SDS011;2043;52.184;8.690;2023-05-10T11:08:19;13.70;;;6.70;;
4055;SDS011;2043;52.184;8.690;2023-05-10T11:16:16;10.60;;;6.27;;
4055;SDS011;2043;52.184;8.690;2023-05-10T11:18:57;14.17;;;5.90;;
4055;SDS011;2043;52.184;8.690;2023-05-10T11:21:28;11.73;;;5.50;;
4055;SDS011;2043;52.184;8.690;2023-05-10T11:23:57;7.70;;;4.47;;
4055;SDS011;2043;52.184;8.690;2023-05-10T11:26:32;10.67;;;5.10;;
4055;SDS011;2043;52.184;8.690;2023-05-10T11:29:01;10.00;;;5.63;;
4055;SDS011;2043;52.184;8.690;2023-05-10T11:31:29;8.87;;;5.70;;
4055;SDS011;2043;52.184;8.690;2023-05-10T11:33:57;8.43;;;5.10;;
4055;SDS011;2043;52.184;8.690;2023-05-10T11:36:25;9.40;;;4.60;;
4055;SDS011;2043;52.184;8.690;2023-05-10T11:38:54;9.80;;;5.30;;
4055;SDS011;2043;52.184;8.690;2023-05-10T11:41:22;9.93;;;5.23;;
4055;SDS011;2043;52.184;8.690;2023-05-10T11:43:51;11.60;;;6.17;;
4055;SDS011;2043;52.184;8.690;2023-05-10T11:46:20;10.93;;;6.03;;
4055;SDS011;2043;52.184;8.690;2023-05-10T11:48:51;17.00;;;6.00;;
4055;SDS011;2043;52.184;8.690;2023-05-10T11:51:20;10.37;;;6.60;;
4055;SDS011;2043;52.184;8.690;2023-05-10T11:53:49;10.00;;;6.13;;
4055;SDS011;2043;52.184;8.690;2023-05-10T11:56:17;9.43;;;5.97;;
4055;SDS011;2043;52.184;8.690;2023-05-10T11:58:44;10.47;;;5.43;;
4055;SDS011;2043;52.184;8.690;2023-05-10T12:01:13;9.73;;;5.90;;
4055;SDS011;2043;52.184;8.690;2023-05-10T12:03:40;12.00;;;7.30;;
4055;SDS011;2043;52.184;8.690;2023-05-10T12:06:07;11.20;;;6.23;;
4055;SDS011;2043;52.184;8.690;2023-05-10T12:08:34;14.93;;;6.80;;
4055;SDS011;2043;52.184;8.690;2023-05-10T12:11:05;15.40;;;7.30;;
4055;SDS011;2043;52.184;8.690;2023-05-10T12:13:40;10.40;;;6.73;;
4055;SDS011;2043;52.184;8.690;2023-05-10T12:16:15;12.07;;;6.97;;
4055;SDS011;2043;52.184;8.690;2023-05-10T12:18:43;14.50;;;7.43;;
4055;SDS011;2043;52.184;8.690;2023-05-10T12:21:11;10.83;;;5.60;;
4055;SDS011;2043;52.184;8.690;2023-05-10T12:23:39;10.10;;;6.20;;
4055;SDS011;2043;52.184;8.690;2023-05-10T12:26:06;13.43;;;7.17;;
4055;SDS011;2043;52.184;8.690;2023-05-10T12:28:34;10.87;;;5.83;;
4055;SDS011;2043;52.184;8.690;2023-05-10T12:31:02;10.50;;;6.30;;
4055;SDS011;2043;52.184;8.690;2023-05-10T12:33:36;9.67;;;5.80;;
4055;SDS011;2043;52.184;8.690;2023-05-10T12:36:11;11.10;;;6.37;;
4055;SDS011;2043;52.184;8.690;2023-05-10T12:38:39;13.47;;;7.20;;
4055;SDS011;2043;52.184;8.690;2023-05-10T12:41:13;9.70;;;5.57;;
4055;SDS011;2043;52.184;8.690;2023-05-10T12:43:42;9.20;;;6.40;;
4055;SDS011;2043;52.184;8.690;2023-05-10T12:48:37;13.20;;;7.20;;
4055;SDS011;2043;52.184;8.690;2023-05-10T12:51:05;14.00;;;8.37;;
4055;SDS011;2043;52.184;8.690;2023-05-10T12:53:38;12.40;;;7.63;;
4055;SDS011;2043;52.184;8.690;2023-05-10T12:56:09;9.17;;;6.50;;
4055;SDS011;2043;52.184;8.690;2023-05-10T12:58:36;10.03;;;6.10;;
4055;SDS011;2043;52.184;8.690;2023-05-10T13:01:02;12.47;;;7.23;;
4055;SDS011;2043;52.184;8.690;2023-05-10T13:03:31;13.90;;;6.97;;
4055;SDS011;2043;52.184;8.690;2023-05-10T13:05:58;11.23;;;6.20;;
4055;SDS011;2043;52.184;8.690;2023-05-10T13:08:25;11.70;;;6.10;;
4055;SDS011;2043;52.184;8.690;2023-05-10T13:10:52;13.30;;;7.50;;
4055;SDS011;2043;52.184;8.690;2023-05-10T13:13:19;12.53;;;6.63;;
4055;SDS011;2043;52.184;8.690;2023-05-10T13:15:46;10.00;;;6.00;;
4055;SDS011;2043;52.184;8.690;2023-05-10T13:18:12;11.70;;;6.70;;
4055;SDS011;2043;52.184;8.690;2023-05-10T13:20:39;13.50;;;7.33;;
4055;SDS011;2043;52.184;8.690;2023-05-10T13:23:06;14.33;;;6.60;;
4055;SDS011;2043;52.184;8.690;2023-05-10T13:25:33;10.73;;;6.83;;
4055;SDS011;2043;52.184;8.690;2023-05-10T13:28:00;13.27;;;6.80;;
4055;SDS011;2043;52.184;8.690;2023-05-10T13:30:27;12.77;;;6.87;;
4055;SDS011;2043;52.184;8.690;2023-05-10T13:32:55;10.33;;;6.87;;
4055;SDS011;2043;52.184;8.690;2023-05-10T13:35:21;12.93;;;7.20;;
4055;SDS011;2043;52.184;8.690;2023-05-10T13:37:48;14.10;;;6.97;;
4055;SDS011;2043;52.184;8.690;2023-05-10T13:40:16;10.40;;;6.53;;
4055;SDS011;2043;52.184;8.690;2023-05-10T13:42:43;10.43;;;7.10;;
4055;SDS011;2043;52.184;8.690;2023-05-10T13:45:10;13.93;;;7.70;;
4055;SDS011;2043;52.184;8.690;2023-05-10T13:47:38;19.23;;;7.87;;
4055;SDS011;2043;52.184;8.690;2023-05-10T13:50:05;21.97;;;8.30;;
4055;SDS011;2043;52.184;8.690;2023-05-10T13:52:33;11.40;;;6.90;;
4055;SDS011;2043;52.184;8.690;2023-05-10T13:54:59;13.37;;;7.07;;
4055;SDS011;2043;52.184;8.690;2023-05-10T13:57:26;14.87;;;6.07;;
4055;SDS011;2043;52.184;8.690;2023-05-10T13:59:54;14.57;;;7.07;;
4055;SDS011;2043;52.184;8.690;2023-05-10T14:02:23;10.47;;;6.00;;
4055;SDS011;2043;52.184;8.690;2023-05-10T14:04:51;12.80;;;8.60;;
4055;SDS011;2043;52.184;8.690;2023-05-10T14:07:17;12.80;;;7.90;;
4055;SDS011;2043;52.184;8.690;2023-05-10T14:09:45;17.57;;;8.03;;
4055;SDS011;2043;52.184;8.690;2023-05-10T14:12:12;13.80;;;8.10;;
4055;SDS011;2043;52.184;8.690;2023-05-10T14:14:40;12.97;;;7.20;;
4055;SDS011;2043;52.184;8.690;2023-05-10T14:17:07;18.33;;;8.90;;
4055;SDS011;2043;52.184;8.690;2023-05-10T14:19:37;34.73;;;9.70;;
4055;SDS011;2043;52.184;8.690;2023-05-10T14:22:05;18.17;;;9.30;;
4055;SDS011;2043;52.184;8.690;2023-05-10T14:24:32;19.17;;;10.30;;
4055;SDS011;2043;52.184;8.690;2023-05-10T14:26:58;19.60;;;11.03;;
4055;SDS011;2043;52.184;8.690;2023-05-10T14:29:26;28.20;;;13.20;;
4055;SDS011;2043;52.184;8.690;2023-05-10T14:31:53;21.97;;;11.80;;
4055;SDS011;2043;52.184;8.690;2023-05-10T14:34:20;23.40;;;11.90;;
4055;SDS011;2043;52.184;8.690;2023-05-10T14:36:47;20.73;;;11.77;;
4055;SDS011;2043;52.184;8.690;2023-05-10T14:39:13;22.97;;;12.87;;
4055;SDS011;2043;52.184;8.690;2023-05-10T14:41:40;31.87;;;13.60;;
4055;SDS011;2043;52.184;8.690;2023-05-10T14:44:09;22.60;;;11.83;;
4055;SDS011;2043;52.184;8.690;2023-05-10T14:46:36;24.50;;;12.40;;
4055;SDS011;2043;52.184;8.690;2023-05-10T14:49:03;23.40;;;12.43;;
4055;SDS011;2043;52.184;8.690;2023-05-10T14:51:30;18.07;;;11.97;;
4055;SDS011;2043;52.184;8.690;2023-05-10T14:53:57;19.50;;;11.70;;
4055;SDS011;2043;52.184;8.690;2023-05-10T14:56:25;18.60;;;12.30;;
4055;SDS011;2043;52.184;8.690;2023-05-10T14:58:54;30.33;;;13.90;;
4055;SDS011;2043;52.184;8.690;2023-05-10T15:01:22;23.70;;;12.63;;
4055;SDS011;2043;52.184;8.690;2023-05-10T15:03:49;25.27;;;14.80;;
4055;SDS011;2043;52.184;8.690;2023-05-10T15:06:17;31.23;;;14.97;;
4055;SDS011;2043;52.184;8.690;2023-05-10T15:08:50;29.33;;;14.87;;
4055;SDS011;2043;52.184;8.690;2023-05-10T15:11:18;29.10;;;16.10;;
4055;SDS011;2043;52.184;8.690;2023-05-10T15:13:44;32.00;;;16.63;;
4055;SDS011;2043;52.184;8.690;2023-05-10T15:16:11;25.23;;;15.80;;
4055;SDS011;2043;52.184;8.690;2023-05-10T15:18:38;26.13;;;15.20;;
4055;SDS011;2043;52.184;8.690;2023-05-10T15:21:05;25.67;;;15.80;;
4055;SDS011;2043;52.184;8.690;2023-05-10T15:23:32;24.37;;;15.63;;
4055;SDS011;2043;52.184;8.690;2023-05-10T15:25:59;26.60;;;15.00;;
4055;SDS011;2043;52.184;8.690;2023-05-10T15:28:26;27.40;;;15.27;;
4055;SDS011;2043;52.184;8.690;2023-05-10T15:30:53;21.97;;;14.00;;
4055;SDS011;2043;52.184;8.690;2023-05-10T15:33:21;28.17;;;14.97;;
4055;SDS011;2043;52.184;8.690;2023-05-10T15:35:48;30.40;;;15.97;;
4055;SDS011;2043;52.184;8.690;2023-05-10T15:38:15;27.30;;;15.10;;
4055;SDS011;2043;52.184;8.690;2023-05-10T15:40:41;29.60;;;16.07;;
4055;SDS011;2043;52.184;8.690;2023-05-10T15:43:08;27.70;;;15.27;;
4055;SDS011;2043;52.184;8.690;2023-05-10T15:45:35;28.23;;;15.40;;
4055;SDS011;2043;52.184;8.690;2023-05-10T15:48:03;27.73;;;15.57;;
4055;SDS011;2043;52.184;8.690;2023-05-10T15:50:30;29.83;;;15.83;;
4055;SDS011;2043;52.184;8.690;2023-05-10T15:52:57;27.20;;;15.90;;
4055;SDS011;2043;52.184;8.690;2023-05-10T15:55:23;29.17;;;17.00;;